Charlestown, IN (47111)

3:45 PM EST on February 06, 2016 (GMT -0500)
Pleasant Run | | Change Station
CLOSE
Current Station
Personal Weather Station
Location: Charlestown, IN
Elevation: 492 ft
Nearby Weather Stations

Elev 492 ft 38.42 °N, 85.69 °W | Updated 22 seconds ago

Clear
Clear
51.8 °F
Feels Like 51.8 °F
N
2.2
Wind Variable Wind from SW
Gusts 4.5 mph

Today
High -- | Low -- °F
--% Chance of Precip.
Yesterday
High -- | Low -- °F
Precip. -- in
Pressure 30.28 in
Visibility 10.0 miles
Clouds Clear
Dew Point 26 °F
Humidity 37%
Rainfall 0.00 in
Snow Depth Not available.
7:43 AM 6:10 PM
Waning Crescent, 4% visible
METAR KLOU 061953Z VRB06KT 10SM CLR 11/M04 A3027 RMK AO2 SLP253 T01061044
Pressure 30.28 in
Visibility 10.0 miles
Clouds Clear
Dew Point 26 °F
Humidity 37%
Rainfall 0.00 in
Snow Depth Not available.
7:43 AM 6:10 PM
Waning Crescent, 4% visible
METAR KLOU 061953Z VRB06KT 10SM CLR 11/M04 A3027 RMK AO2 SLP253 T01061044

10-Day Weather Forecast

Almanac

Astronomy

Feb. 06, 2016 Rise Set
Actual Time
Civil Twilight
Nautical Twilight
Astronomical Twilight
Moon
Length of Visible Light
Length of Day
Tomorrow will be .
, % of the Moon is Illuminated

Today's Extremes

State Highs State Lows

Community

WunderPhotos

Upload Photos

1,891,046 photos uploaded!

WunderBlog® & News

Nearby

Air Quality

  Air Quality AQ Index Pollutant
Not available.

Snow Depth

Station Depth Elevation

Earthquake Activity

City Distance Mag. Time & Date
Minimum magnitude displayed is 2.5.

Coastal Water Temperatures

Place Temperature

Stations

Nearby Weather Stations

Station Location Temp. Windchill Dew Point Humidity Wind Precip. Elev Updated Type
                   

Watches & Warnings

There are currently no watches in effect.